Terminal Aerodrome Forecast
Issued by NWS Pueblo, CO

Home | Current Version | Previous Version | Text Only | Print | Product List | Glossary On
Versions: 1 2 3 4 5 6 7 8 9 10 11 12 13 14 15 16 17 18 19 20 21 22 23 24 25 26 27 28 29 30 31 32 33 34 35 36
000
FTUS45 KPUB 290717 AAB
TAFPUB
TAF AMD
KPUB 290717Z 2907/3006 36008KT 6SM -SHRA BR SCT015 OVC020
     FM291000 03010KT 2SM -SN BR OVC008
     FM291600 01011KT 3SM -SN BR OVC012
     FM291900 36012KT 5SM -SHRASN BKN018
     FM292000 36011KT 5SM -SHRASN BKN025
     FM292200 03010KT P6SM SCT025 BKN035
     FM300400 35008KT P6SM SCT035 BKN050=

USA.gov is the U.S. government's official web portal to all federal, state and local government web resources and services.